createdAt,value
2018-12-05T00:01:37.245Z,4.65
2018-12-05T00:12:42.529Z,4.83
2018-12-05T00:23:48.205Z,4.72
2018-12-05T00:34:48.109Z,4.72
2018-12-05T00:45:50.090Z,4.84
2018-12-05T00:56:49.145Z,4.99
2018-12-05T01:07:47.554Z,5.26
2018-12-05T01:18:51.512Z,4.66
2018-12-05T01:29:52.661Z,4.56
2018-12-05T01:40:55.790Z,4.22
2018-12-05T01:51:55.751Z,3.79
2018-12-05T02:02:55.700Z,3.61
2018-12-05T02:14:00.979Z,3.35
2018-12-05T02:25:01.643Z,3.21
2018-12-05T02:36:06.283Z,3.07
2018-12-05T02:47:12.968Z,2.73
2018-12-05T02:58:02.505Z,2.75
2018-12-05T03:09:06.407Z,2.56
2018-12-05T03:20:10.280Z,2.41
2018-12-05T03:31:16.273Z,2.52
2018-12-05T03:42:02.299Z,2.73
2018-12-05T03:53:04.420Z,2.70
2018-12-05T04:04:02.421Z,3.03
2018-12-05T04:15:04.475Z,2.93
2018-12-05T04:26:07.190Z,2.59
2018-12-05T04:37:12.201Z,2.19
2018-12-05T04:48:17.121Z,1.91
2018-12-05T04:59:17.370Z,1.74
2018-12-05T05:10:18.073Z,1.61
2018-12-05T05:21:23.745Z,1.66
2018-12-05T05:32:22.546Z,1.86
2018-12-05T05:43:24.011Z,1.98
2018-12-05T05:54:24.374Z,2.01
2018-12-05T06:05:30.571Z,1.99
2018-12-05T06:16:35.378Z,2.03
2018-12-05T06:27:41.056Z,2.10
2018-12-05T06:38:38.447Z,2.14
2018-12-05T06:49:44.004Z,2.56
2018-12-05T07:00:45.351Z,2.66
2018-12-05T07:11:47.371Z,3.04
2018-12-05T07:22:49.350Z,3.24
2018-12-05T07:33:51.033Z,3.34
2018-12-05T07:44:57.491Z,3.82
2018-12-05T07:56:03.652Z,4.30
2018-12-05T08:07:07.888Z,4.88
2018-12-05T08:18:14.350Z,5.42
2018-12-05T08:29:19.657Z,5.65
2018-12-05T08:40:21.248Z,5.89
2018-12-05T08:51:22.251Z,5.97
2018-12-05T09:02:27.079Z,6.10
2018-12-05T09:13:32.507Z,6.34
2018-12-05T09:24:37.384Z,6.55
2018-12-05T09:35:42.881Z,6.70
2018-12-05T09:46:44.595Z,6.62
2018-12-05T09:57:45.231Z,6.96
2018-12-05T10:08:48.416Z,7.24
2018-12-05T10:19:52.412Z,7.20
2018-12-05T10:30:53.576Z,7.27
2018-12-05T10:41:48.929Z,6.94
2018-12-05T10:52:51.567Z,6.81
2018-12-05T11:03:50.487Z,6.72
2018-12-05T11:14:47.834Z,6.60
2018-12-05T11:25:46.409Z,6.62
2018-12-05T11:36:51.347Z,7.12
2018-12-05T11:47:51.110Z,7.06
2018-12-05T11:58:55.491Z,7.08
2018-12-05T12:09:56.401Z,7.09
2018-12-05T12:20:59.700Z,7.02
2018-12-05T12:32:00.562Z,6.96
2018-12-05T12:43:05.166Z,7.17
2018-12-05T12:54:07.938Z,6.86
2018-12-05T13:05:09.448Z,7.09
2018-12-05T13:16:10.157Z,6.75
2018-12-05T13:27:07.717Z,6.55
2018-12-05T13:38:08.698Z,6.32
2018-12-05T13:49:04.813Z,6.27
2018-12-05T14:00:05.675Z,6.24
2018-12-05T14:11:09.065Z,6.10
2018-12-05T14:22:10.481Z,6.00
2018-12-05T14:33:10.215Z,5.96
2018-12-05T14:44:11.827Z,5.93
2018-12-05T14:55:11.478Z,5.83
2018-12-05T15:06:10.453Z,5.72
2018-12-05T15:17:07.940Z,5.71
2018-12-05T15:28:09.990Z,5.36
2018-12-05T15:39:13.244Z,4.76
2018-12-05T15:50:11.635Z,4.83
2018-12-05T16:01:13.727Z,4.66
2018-12-05T16:12:15.417Z,4.72
2018-12-05T16:23:19.868Z,4.59
2018-12-05T16:34:28.397Z,4.73
2018-12-05T16:45:26.800Z,4.74
2018-12-05T16:56:24.848Z,4.55
2018-12-05T17:07:26.300Z,4.64
2018-12-05T17:18:23.627Z,4.65
2018-12-05T17:29:26.655Z,4.84
2018-12-05T17:40:27.150Z,4.66
2018-12-05T17:51:25.690Z,4.62
2018-12-05T18:02:28.343Z,4.68
2018-12-05T18:13:25.930Z,4.58
2018-12-05T18:24:25.971Z,4.62
2018-12-05T18:35:26.761Z,4.58
2018-12-05T18:46:26.702Z,4.58
2018-12-05T18:57:24.747Z,4.47
2018-12-05T19:08:25.296Z,4.41
2018-12-05T19:19:20.362Z,4.44
2018-12-05T19:30:20.744Z,4.46
2018-12-05T19:41:19.516Z,4.38
2018-12-05T19:52:22.547Z,4.32
2018-12-05T20:03:20.197Z,4.20
2018-12-05T20:14:23.586Z,4.05
2018-12-05T20:25:22.630Z,3.93
2018-12-05T20:36:21.791Z,3.84
2018-12-05T20:47:25.818Z,3.83
2018-12-05T20:58:29.319Z,3.86
2018-12-05T21:09:27.695Z,4.02
2018-12-05T21:20:26.744Z,3.97
2018-12-05T21:31:26.841Z,3.97
2018-12-05T21:42:26.592Z,4.01
2018-12-05T21:53:29.770Z,4.01
2018-12-05T22:04:33.578Z,3.90
2018-12-05T22:15:35.753Z,3.89
2018-12-05T22:26:40.620Z,3.93
2018-12-05T22:37:42.558Z,4.05
2018-12-05T22:48:47.502Z,4.07
2018-12-05T22:59:51.581Z,4.07
2018-12-05T23:10:55.138Z,4.01
2018-12-05T23:22:31.331Z,4.76
2018-12-05T23:33:27.056Z,4.00
2018-12-05T23:44:23.221Z,3.86
2018-12-05T23:55:23.837Z,4.05
